sensor_id;sensor_type;location;lat;lon;timestamp;P1;durP1;ratioP1;P2;durP2;ratioP2
4575;SDS011;2300;51.874;8.430;2023-07-09T00:00:52;11.35;;;8.05;;
4575;SDS011;2300;51.874;8.430;2023-07-09T00:03:18;10.13;;;7.10;;
4575;SDS011;2300;51.874;8.430;2023-07-09T00:05:45;12.05;;;7.90;;
4575;SDS011;2300;51.874;8.430;2023-07-09T00:08:14;10.50;;;7.38;;
4575;SDS011;2300;51.874;8.430;2023-07-09T00:10:51;10.05;;;6.85;;
4575;SDS011;2300;51.874;8.430;2023-07-09T00:13:17;10.55;;;7.47;;
4575;SDS011;2300;51.874;8.430;2023-07-09T00:15:45;11.35;;;8.05;;
4575;SDS011;2300;51.874;8.430;2023-07-09T00:18:12;10.18;;;7.65;;
4575;SDS011;2300;51.874;8.430;2023-07-09T00:20:38;10.85;;;8.23;;
4575;SDS011;2300;51.874;8.430;2023-07-09T00:23:06;9.85;;;7.47;;
4575;SDS011;2300;51.874;8.430;2023-07-09T00:25:34;11.07;;;7.82;;
4575;SDS011;2300;51.874;8.430;2023-07-09T00:28:01;9.93;;;7.35;;
4575;SDS011;2300;51.874;8.430;2023-07-09T00:30:27;8.93;;;6.55;;
4575;SDS011;2300;51.874;8.430;2023-07-09T00:32:56;10.75;;;6.97;;
4575;SDS011;2300;51.874;8.430;2023-07-09T00:35:22;9.15;;;6.93;;
4575;SDS011;2300;51.874;8.430;2023-07-09T00:37:50;8.73;;;6.88;;
4575;SDS011;2300;51.874;8.430;2023-07-09T00:40:17;11.65;;;7.25;;
4575;SDS011;2300;51.874;8.430;2023-07-09T00:42:46;10.82;;;6.97;;
4575;SDS011;2300;51.874;8.430;2023-07-09T00:45:19;10.32;;;6.95;;
4575;SDS011;2300;51.874;8.430;2023-07-09T00:47:48;10.52;;;7.60;;
4575;SDS011;2300;51.874;8.430;2023-07-09T00:50:30;10.75;;;7.68;;
4575;SDS011;2300;51.874;8.430;2023-07-09T00:53:01;8.90;;;6.85;;
4575;SDS011;2300;51.874;8.430;2023-07-09T00:55:32;10.23;;;6.80;;
4575;SDS011;2300;51.874;8.430;2023-07-09T00:58:03;10.70;;;7.53;;
4575;SDS011;2300;51.874;8.430;2023-07-09T01:00:34;10.32;;;7.15;;
4575;SDS011;2300;51.874;8.430;2023-07-09T01:03:11;13.88;;;7.80;;
4575;SDS011;2300;51.874;8.430;2023-07-09T01:05:43;10.45;;;7.22;;
4575;SDS011;2300;51.874;8.430;2023-07-09T01:08:10;9.02;;;6.88;;
4575;SDS011;2300;51.874;8.430;2023-07-09T01:10:37;8.63;;;6.95;;
4575;SDS011;2300;51.874;8.430;2023-07-09T01:13:05;9.65;;;7.38;;
4575;SDS011;2300;51.874;8.430;2023-07-09T01:15:33;12.40;;;7.50;;
4575;SDS011;2300;51.874;8.430;2023-07-09T01:18:00;11.10;;;7.45;;
4575;SDS011;2300;51.874;8.430;2023-07-09T01:20:27;11.32;;;8.27;;
4575;SDS011;2300;51.874;8.430;2023-07-09T01:22:55;12.02;;;8.23;;
4575;SDS011;2300;51.874;8.430;2023-07-09T01:25:22;11.35;;;8.40;;
4575;SDS011;2300;51.874;8.430;2023-07-09T01:27:50;12.20;;;8.38;;
4575;SDS011;2300;51.874;8.430;2023-07-09T01:30:18;9.80;;;8.25;;
4575;SDS011;2300;51.874;8.430;2023-07-09T01:32:50;10.02;;;8.35;;
4575;SDS011;2300;51.874;8.430;2023-07-09T01:35:18;12.32;;;8.82;;
4575;SDS011;2300;51.874;8.430;2023-07-09T01:37:46;9.93;;;7.80;;
4575;SDS011;2300;51.874;8.430;2023-07-09T01:40:15;10.85;;;8.50;;
4575;SDS011;2300;51.874;8.430;2023-07-09T01:42:44;11.77;;;8.43;;
4575;SDS011;2300;51.874;8.430;2023-07-09T01:45:11;12.60;;;8.50;;
4575;SDS011;2300;51.874;8.430;2023-07-09T01:47:38;11.82;;;8.63;;
4575;SDS011;2300;51.874;8.430;2023-07-09T01:50:05;10.23;;;7.93;;
4575;SDS011;2300;51.874;8.430;2023-07-09T01:52:33;10.13;;;7.60;;
4575;SDS011;2300;51.874;8.430;2023-07-09T01:55:00;12.13;;;8.25;;
4575;SDS011;2300;51.874;8.430;2023-07-09T01:57:29;11.90;;;8.50;;
4575;SDS011;2300;51.874;8.430;2023-07-09T01:59:59;14.45;;;8.57;;
4575;SDS011;2300;51.874;8.430;2023-07-09T02:02:29;11.27;;;8.25;;
4575;SDS011;2300;51.874;8.430;2023-07-09T02:04:57;10.18;;;8.07;;
4575;SDS011;2300;51.874;8.430;2023-07-09T02:07:24;11.68;;;8.50;;
4575;SDS011;2300;51.874;8.430;2023-07-09T02:09:51;10.80;;;8.35;;
4575;SDS011;2300;51.874;8.430;2023-07-09T02:12:18;12.27;;;8.70;;
4575;SDS011;2300;51.874;8.430;2023-07-09T02:14:46;11.90;;;8.45;;
4575;SDS011;2300;51.874;8.430;2023-07-09T02:17:13;14.30;;;8.52;;
4575;SDS011;2300;51.874;8.430;2023-07-09T02:19:40;10.57;;;8.85;;
4575;SDS011;2300;51.874;8.430;2023-07-09T02:22:07;10.73;;;8.65;;
4575;SDS011;2300;51.874;8.430;2023-07-09T02:24:34;12.35;;;8.63;;
4575;SDS011;2300;51.874;8.430;2023-07-09T02:27:02;10.90;;;8.77;;
4575;SDS011;2300;51.874;8.430;2023-07-09T02:29:31;13.57;;;9.55;;
4575;SDS011;2300;51.874;8.430;2023-07-09T02:31:59;13.25;;;9.60;;
4575;SDS011;2300;51.874;8.430;2023-07-09T02:34:27;13.40;;;9.50;;
4575;SDS011;2300;51.874;8.430;2023-07-09T02:36:55;12.32;;;9.77;;
4575;SDS011;2300;51.874;8.430;2023-07-09T02:39:23;13.45;;;9.48;;
4575;SDS011;2300;51.874;8.430;2023-07-09T02:41:51;14.68;;;9.50;;
4575;SDS011;2300;51.874;8.430;2023-07-09T02:44:17;13.70;;;9.15;;
4575;SDS011;2300;51.874;8.430;2023-07-09T02:46:44;16.13;;;9.77;;
4575;SDS011;2300;51.874;8.430;2023-07-09T02:49:13;12.70;;;9.45;;
4575;SDS011;2300;51.874;8.430;2023-07-09T02:51:40;10.77;;;9.10;;
4575;SDS011;2300;51.874;8.430;2023-07-09T02:54:07;15.70;;;9.55;;
4575;SDS011;2300;51.874;8.430;2023-07-09T02:56:33;12.98;;;8.88;;
4575;SDS011;2300;51.874;8.430;2023-07-09T02:59:00;11.90;;;8.73;;
4575;SDS011;2300;51.874;8.430;2023-07-09T03:01:26;12.77;;;8.80;;
4575;SDS011;2300;51.874;8.430;2023-07-09T03:03:53;13.88;;;9.57;;
4575;SDS011;2300;51.874;8.430;2023-07-09T03:06:22;15.23;;;8.95;;
4575;SDS011;2300;51.874;8.430;2023-07-09T03:08:50;12.55;;;9.32;;
4575;SDS011;2300;51.874;8.430;2023-07-09T03:11:17;13.00;;;9.50;;
4575;SDS011;2300;51.874;8.430;2023-07-09T03:13:45;13.57;;;8.80;;
4575;SDS011;2300;51.874;8.430;2023-07-09T03:16:12;13.32;;;9.90;;
4575;SDS011;2300;51.874;8.430;2023-07-09T03:18:39;14.27;;;10.50;;
4575;SDS011;2300;51.874;8.430;2023-07-09T03:21:05;13.75;;;9.52;;
4575;SDS011;2300;51.874;8.430;2023-07-09T03:23:33;13.35;;;10.38;;
4575;SDS011;2300;51.874;8.430;2023-07-09T03:26:00;13.07;;;9.80;;
4575;SDS011;2300;51.874;8.430;2023-07-09T03:28:26;15.07;;;9.57;;
4575;SDS011;2300;51.874;8.430;2023-07-09T03:30:53;16.08;;;10.13;;
4575;SDS011;2300;51.874;8.430;2023-07-09T03:33:21;12.77;;;9.85;;
4575;SDS011;2300;51.874;8.430;2023-07-09T03:35:48;14.85;;;10.50;;
4575;SDS011;2300;51.874;8.430;2023-07-09T03:38:15;14.43;;;10.93;;
4575;SDS011;2300;51.874;8.430;2023-07-09T03:40:43;14.85;;;10.95;;
4575;SDS011;2300;51.874;8.430;2023-07-09T03:43:10;11.60;;;10.23;;
4575;SDS011;2300;51.874;8.430;2023-07-09T03:45:37;14.77;;;11.35;;
4575;SDS011;2300;51.874;8.430;2023-07-09T03:48:04;16.65;;;11.63;;
4575;SDS011;2300;51.874;8.430;2023-07-09T03:50:31;12.65;;;11.30;;
4575;SDS011;2300;51.874;8.430;2023-07-09T03:52:58;15.02;;;11.38;;
4575;SDS011;2300;51.874;8.430;2023-07-09T03:55:25;16.33;;;11.43;;
4575;SDS011;2300;51.874;8.430;2023-07-09T03:57:53;14.88;;;11.13;;
4575;SDS011;2300;51.874;8.430;2023-07-09T04:00:20;13.93;;;11.52;;
4575;SDS011;2300;51.874;8.430;2023-07-09T04:02:47;15.23;;;10.98;;
4575;SDS011;2300;51.874;8.430;2023-07-09T04:05:14;13.70;;;11.05;;
4575;SDS011;2300;51.874;8.430;2023-07-09T04:07:41;14.95;;;11.40;;
4575;SDS011;2300;51.874;8.430;2023-07-09T04:10:07;12.60;;;11.07;;
4575;SDS011;2300;51.874;8.430;2023-07-09T04:12:34;14.95;;;11.77;;
4575;SDS011;2300;51.874;8.430;2023-07-09T04:15:03;14.10;;;12.18;;
4575;SDS011;2300;51.874;8.430;2023-07-09T04:17:30;15.23;;;10.88;;
4575;SDS011;2300;51.874;8.430;2023-07-09T04:19:57;12.05;;;10.38;;
4575;SDS011;2300;51.874;8.430;2023-07-09T04:22:23;14.52;;;11.10;;
4575;SDS011;2300;51.874;8.430;2023-07-09T04:24:50;12.00;;;10.07;;
4575;SDS011;2300;51.874;8.430;2023-07-09T04:27:18;12.48;;;10.55;;
4575;SDS011;2300;51.874;8.430;2023-07-09T04:29:45;14.63;;;11.23;;
4575;SDS011;2300;51.874;8.430;2023-07-09T04:32:13;14.82;;;11.45;;
4575;SDS011;2300;51.874;8.430;2023-07-09T04:34:40;15.45;;;10.32;;
4575;SDS011;2300;51.874;8.430;2023-07-09T04:37:07;15.35;;;10.60;;
4575;SDS011;2300;51.874;8.430;2023-07-09T04:39:36;13.88;;;10.43;;
4575;SDS011;2300;51.874;8.430;2023-07-09T04:42:03;13.93;;;10.13;;
4575;SDS011;2300;51.874;8.430;2023-07-09T04:44:30;12.95;;;10.55;;
4575;SDS011;2300;51.874;8.430;2023-07-09T04:46:57;11.80;;;10.10;;
4575;SDS011;2300;51.874;8.430;2023-07-09T04:49:25;16.08;;;9.95;;
4575;SDS011;2300;51.874;8.430;2023-07-09T04:51:51;12.68;;;9.35;;
4575;SDS011;2300;51.874;8.430;2023-07-09T04:54:17;13.88;;;9.65;;
4575;SDS011;2300;51.874;8.430;2023-07-09T04:56:44;11.93;;;9.88;;
4575;SDS011;2300;51.874;8.430;2023-07-09T04:59:10;13.50;;;9.75;;
4575;SDS011;2300;51.874;8.430;2023-07-09T05:01:37;11.70;;;9.40;;
4575;SDS011;2300;51.874;8.430;2023-07-09T05:04:04;15.27;;;9.98;;
4575;SDS011;2300;51.874;8.430;2023-07-09T05:06:33;15.52;;;9.60;;
4575;SDS011;2300;51.874;8.430;2023-07-09T05:09:00;13.77;;;9.45;;
4575;SDS011;2300;51.874;8.430;2023-07-09T05:11:27;15.05;;;9.35;;
4575;SDS011;2300;51.874;8.430;2023-07-09T05:13:53;11.57;;;8.60;;
4575;SDS011;2300;51.874;8.430;2023-07-09T05:16:20;11.35;;;8.52;;
4575;SDS011;2300;51.874;8.430;2023-07-09T05:18:46;12.63;;;8.75;;
4575;SDS011;2300;51.874;8.430;2023-07-09T05:21:13;14.63;;;9.25;;
4575;SDS011;2300;51.874;8.430;2023-07-09T05:23:41;12.40;;;9.20;;
4575;SDS011;2300;51.874;8.430;2023-07-09T05:26:09;12.73;;;8.30;;
4575;SDS011;2300;51.874;8.430;2023-07-09T05:28:38;10.68;;;8.27;;
4575;SDS011;2300;51.874;8.430;2023-07-09T05:31:05;10.02;;;8.02;;
4575;SDS011;2300;51.874;8.430;2023-07-09T05:33:32;10.88;;;8.50;;
4575;SDS011;2300;51.874;8.430;2023-07-09T05:35:58;10.93;;;8.13;;
4575;SDS011;2300;51.874;8.430;2023-07-09T05:38:25;11.90;;;8.07;;
4575;SDS011;2300;51.874;8.430;2023-07-09T05:40:59;10.43;;;7.93;;
4575;SDS011;2300;51.874;8.430;2023-07-09T05:43:30;10.43;;;8.05;;
4575;SDS011;2300;51.874;8.430;2023-07-09T05:45:57;8.93;;;7.50;;
4575;SDS011;2300;51.874;8.430;2023-07-09T05:48:23;10.82;;;7.50;;
4575;SDS011;2300;51.874;8.430;2023-07-09T05:50:52;12.00;;;8.23;;
4575;SDS011;2300;51.874;8.430;2023-07-09T05:53:19;8.90;;;7.72;;
4575;SDS011;2300;51.874;8.430;2023-07-09T05:55:46;9.43;;;7.88;;
4575;SDS011;2300;51.874;8.430;2023-07-09T05:58:14;12.25;;;7.18;;
4575;SDS011;2300;51.874;8.430;2023-07-09T06:00:40;8.85;;;7.25;;
4575;SDS011;2300;51.874;8.430;2023-07-09T06:03:07;11.43;;;7.75;;
4575;SDS011;2300;51.874;8.430;2023-07-09T06:05:34;11.43;;;8.25;;
4575;SDS011;2300;51.874;8.430;2023-07-09T06:08:01;10.50;;;7.80;;
4575;SDS011;2300;51.874;8.430;2023-07-09T06:10:29;7.85;;;7.05;;
4575;SDS011;2300;51.874;8.430;2023-07-09T06:12:56;9.02;;;7.50;;
4575;SDS011;2300;51.874;8.430;2023-07-09T06:15:29;8.05;;;6.47;;
4575;SDS011;2300;51.874;8.430;2023-07-09T06:17:55;10.55;;;7.25;;
4575;SDS011;2300;51.874;8.430;2023-07-09T06:20:22;8.88;;;6.95;;
4575;SDS011;2300;51.874;8.430;2023-07-09T06:22:48;8.15;;;6.40;;
4575;SDS011;2300;51.874;8.430;2023-07-09T06:25:15;11.05;;;7.70;;
4575;SDS011;2300;51.874;8.430;2023-07-09T06:27:41;8.30;;;6.88;;
4575;SDS011;2300;51.874;8.430;2023-07-09T06:30:08;9.02;;;7.38;;
4575;SDS011;2300;51.874;8.430;2023-07-09T06:32:36;9.15;;;6.95;;
4575;SDS011;2300;51.874;8.430;2023-07-09T06:35:03;8.60;;;7.28;;
4575;SDS011;2300;51.874;8.430;2023-07-09T06:37:30;9.13;;;6.85;;
4575;SDS011;2300;51.874;8.430;2023-07-09T06:39:57;11.73;;;7.30;;
4575;SDS011;2300;51.874;8.430;2023-07-09T06:42:23;9.85;;;7.22;;
4575;SDS011;2300;51.874;8.430;2023-07-09T06:44:50;9.65;;;6.93;;
4575;SDS011;2300;51.874;8.430;2023-07-09T06:47:16;12.75;;;7.32;;
4575;SDS011;2300;51.874;8.430;2023-07-09T06:49:44;9.18;;;7.05;;
4575;SDS011;2300;51.874;8.430;2023-07-09T06:52:11;10.98;;;7.03;;
4575;SDS011;2300;51.874;8.430;2023-07-09T06:54:37;11.40;;;7.20;;
4575;SDS011;2300;51.874;8.430;2023-07-09T06:57:04;9.13;;;6.72;;
4575;SDS011;2300;51.874;8.430;2023-07-09T06:59:31;10.70;;;7.95;;
4575;SDS011;2300;51.874;8.430;2023-07-09T07:01:57;10.27;;;7.57;;
4575;SDS011;2300;51.874;8.430;2023-07-09T07:04:25;9.07;;;7.25;;
4575;SDS011;2300;51.874;8.430;2023-07-09T07:06:53;10.10;;;7.45;;
4575;SDS011;2300;51.874;8.430;2023-07-09T07:09:21;9.77;;;6.57;;
4575;SDS011;2300;51.874;8.430;2023-07-09T07:11:48;10.80;;;6.70;;
4575;SDS011;2300;51.874;8.430;2023-07-09T07:14:15;8.77;;;6.95;;
4575;SDS011;2300;51.874;8.430;2023-07-09T07:16:42;9.05;;;7.20;;
4575;SDS011;2300;51.874;8.430;2023-07-09T07:19:09;8.45;;;7.15;;
4575;SDS011;2300;51.874;8.430;2023-07-09T07:21:36;8.63;;;6.97;;
4575;SDS011;2300;51.874;8.430;2023-07-09T07:24:04;13.55;;;6.90;;
4575;SDS011;2300;51.874;8.430;2023-07-09T07:26:31;10.13;;;6.68;;
4575;SDS011;2300;51.874;8.430;2023-07-09T07:28:57;12.07;;;6.90;;
4575;SDS011;2300;51.874;8.430;2023-07-09T07:31:24;12.52;;;7.03;;
4575;SDS011;2300;51.874;8.430;2023-07-09T07:33:50;9.32;;;6.30;;
4575;SDS011;2300;51.874;8.430;2023-07-09T07:36:17;10.35;;;6.45;;
4575;SDS011;2300;51.874;8.430;2023-07-09T07:38:43;10.57;;;6.78;;
4575;SDS011;2300;51.874;8.430;2023-07-09T07:41:11;9.23;;;6.80;;
4575;SDS011;2300;51.874;8.430;2023-07-09T07:43:38;10.32;;;6.82;;
4575;SDS011;2300;51.874;8.430;2023-07-09T07:46:05;9.88;;;6.90;;
4575;SDS011;2300;51.874;8.430;2023-07-09T07:48:32;9.60;;;6.97;;
4575;SDS011;2300;51.874;8.430;2023-07-09T07:50:59;11.77;;;6.50;;
4575;SDS011;2300;51.874;8.430;2023-07-09T07:53:26;7.72;;;5.78;;
4575;SDS011;2300;51.874;8.430;2023-07-09T07:55:54;9.27;;;6.65;;
4575;SDS011;2300;51.874;8.430;2023-07-09T07:58:22;10.23;;;5.90;;
4575;SDS011;2300;51.874;8.430;2023-07-09T08:00:49;9.05;;;6.18;;
4575;SDS011;2300;51.874;8.430;2023-07-09T08:03:15;10.68;;;6.88;;
4575;SDS011;2300;51.874;8.430;2023-07-09T08:05:42;11.23;;;6.30;;
4575;SDS011;2300;51.874;8.430;2023-07-09T08:08:08;9.95;;;6.35;;
4575;SDS011;2300;51.874;8.430;2023-07-09T08:10:36;11.02;;;6.57;;
4575;SDS011;2300;51.874;8.430;2023-07-09T08:13:02;9.20;;;6.57;;
4575;SDS011;2300;51.874;8.430;2023-07-09T08:15:30;9.05;;;6.30;;
4575;SDS011;2300;51.874;8.430;2023-07-09T08:17:57;11.77;;;6.43;;
4575;SDS011;2300;51.874;8.430;2023-07-09T08:20:23;8.73;;;6.07;;
4575;SDS011;2300;51.874;8.430;2023-07-09T08:22:50;13.13;;;6.50;;
4575;SDS011;2300;51.874;8.430;2023-07-09T08:25:16;9.30;;;6.57;;
4575;SDS011;2300;51.874;8.430;2023-07-09T08:27:43;8.10;;;5.35;;
4575;SDS011;2300;51.874;8.430;2023-07-09T08:30:10;8.48;;;5.78;;
4575;SDS011;2300;51.874;8.430;2023-07-09T08:32:38;11.52;;;6.35;;
4575;SDS011;2300;51.874;8.430;2023-07-09T08:35:05;8.90;;;5.72;;
4575;SDS011;2300;51.874;8.430;2023-07-09T08:37:32;12.40;;;5.72;;
4575;SDS011;2300;51.874;8.430;2023-07-09T08:39:58;11.55;;;6.10;;
4575;SDS011;2300;51.874;8.430;2023-07-09T08:42:26;8.43;;;5.80;;
4575;SDS011;2300;51.874;8.430;2023-07-09T08:44:59;8.18;;;5.43;;
4575;SDS011;2300;51.874;8.430;2023-07-09T08:47:40;12.70;;;6.25;;
4575;SDS011;2300;51.874;8.430;2023-07-09T08:50:14;11.15;;;6.85;;
4575;SDS011;2300;51.874;8.430;2023-07-09T08:52:44;9.63;;;6.50;;
4575;SDS011;2300;51.874;8.430;2023-07-09T08:55:12;8.70;;;5.93;;
4575;SDS011;2300;51.874;8.430;2023-07-09T08:57:42;10.45;;;6.32;;
4575;SDS011;2300;51.874;8.430;2023-07-09T09:00:14;9.77;;;6.18;;
4575;SDS011;2300;51.874;8.430;2023-07-09T09:02:46;10.13;;;5.88;;
4575;SDS011;2300;51.874;8.430;2023-07-09T09:05:17;10.70;;;5.60;;
4575;SDS011;2300;51.874;8.430;2023-07-09T09:07:46;9.82;;;5.90;;
4575;SDS011;2300;51.874;8.430;2023-07-09T09:10:19;10.10;;;6.05;;
4575;SDS011;2300;51.874;8.430;2023-07-09T09:12:56;8.30;;;5.97;;
4575;SDS011;2300;51.874;8.430;2023-07-09T09:15:31;10.30;;;6.80;;
4575;SDS011;2300;51.874;8.430;2023-07-09T09:18:09;10.93;;;6.32;;
4575;SDS011;2300;51.874;8.430;2023-07-09T09:20:45;11.98;;;6.47;;
4575;SDS011;2300;51.874;8.430;2023-07-09T09:23:14;9.82;;;6.35;;
4575;SDS011;2300;51.874;8.430;2023-07-09T09:25:41;12.05;;;6.40;;
4575;SDS011;2300;51.874;8.430;2023-07-09T09:28:13;10.73;;;5.90;;
4575;SDS011;2300;51.874;8.430;2023-07-09T09:30:39;14.20;;;6.25;;
4575;SDS011;2300;51.874;8.430;2023-07-09T09:33:08;10.75;;;6.80;;
4575;SDS011;2300;51.874;8.430;2023-07-09T09:35:37;9.82;;;6.53;;
4575;SDS011;2300;51.874;8.430;2023-07-09T09:38:09;11.52;;;5.85;;
4575;SDS011;2300;51.874;8.430;2023-07-09T09:40:37;9.07;;;6.38;;
4575;SDS011;2300;51.874;8.430;2023-07-09T09:43:09;11.75;;;6.85;;
4575;SDS011;2300;51.874;8.430;2023-07-09T09:45:40;7.75;;;5.78;;
4575;SDS011;2300;51.874;8.430;2023-07-09T09:48:13;9.23;;;6.32;;
4575;SDS011;2300;51.874;8.430;2023-07-09T09:50:41;11.43;;;6.38;;
4575;SDS011;2300;51.874;8.430;2023-07-09T09:53:08;10.50;;;6.40;;
4575;SDS011;2300;51.874;8.430;2023-07-09T09:55:37;12.80;;;6.70;;
4575;SDS011;2300;51.874;8.430;2023-07-09T09:58:11;9.85;;;6.40;;
4575;SDS011;2300;51.874;8.430;2023-07-09T10:00:39;8.65;;;6.20;;
4575;SDS011;2300;51.874;8.430;2023-07-09T10:03:06;11.88;;;6.55;;
4575;SDS011;2300;51.874;8.430;2023-07-09T10:05:34;10.65;;;6.60;;
4575;SDS011;2300;51.874;8.430;2023-07-09T10:08:07;10.15;;;6.45;;
4575;SDS011;2300;51.874;8.430;2023-07-09T10:10:35;9.77;;;6.10;;
4575;SDS011;2300;51.874;8.430;2023-07-09T10:13:05;10.15;;;7.07;;
4575;SDS011;2300;51.874;8.430;2023-07-09T10:15:40;11.73;;;6.78;;
4575;SDS011;2300;51.874;8.430;2023-07-09T10:18:16;9.45;;;6.45;;
4575;SDS011;2300;51.874;8.430;2023-07-09T10:21:08;10.70;;;6.72;;
4575;SDS011;2300;51.874;8.430;2023-07-09T10:23:43;12.02;;;6.88;;
4575;SDS011;2300;51.874;8.430;2023-07-09T10:26:15;10.00;;;6.35;;
4575;SDS011;2300;51.874;8.430;2023-07-09T10:31:54;11.70;;;6.47;;
4575;SDS011;2300;51.874;8.430;2023-07-09T10:34:30;8.85;;;6.38;;
4575;SDS011;2300;51.874;8.430;2023-07-09T10:37:13;11.57;;;6.50;;
4575;SDS011;2300;51.874;8.430;2023-07-09T10:39:49;9.18;;;6.30;;
4575;SDS011;2300;51.874;8.430;2023-07-09T10:42:21;10.13;;;6.05;;
4575;SDS011;2300;51.874;8.430;2023-07-09T10:44:53;10.57;;;6.47;;
4575;SDS011;2300;51.874;8.430;2023-07-09T10:47:25;13.07;;;7.00;;
4575;SDS011;2300;51.874;8.430;2023-07-09T10:49:58;10.60;;;6.82;;
4575;SDS011;2300;51.874;8.430;2023-07-09T10:52:28;11.27;;;6.72;;
4575;SDS011;2300;51.874;8.430;2023-07-09T10:54:59;9.48;;;6.35;;
4575;SDS011;2300;51.874;8.430;2023-07-09T10:57:34;9.20;;;6.00;;
4575;SDS011;2300;51.874;8.430;2023-07-09T11:00:11;11.40;;;6.55;;
4575;SDS011;2300;51.874;8.430;2023-07-09T11:02:41;10.32;;;6.25;;
4575;SDS011;2300;51.874;8.430;2023-07-09T11:05:09;10.60;;;6.65;;
4575;SDS011;2300;51.874;8.430;2023-07-09T11:07:38;11.45;;;6.32;;
4575;SDS011;2300;51.874;8.430;2023-07-09T11:10:14;11.73;;;5.95;;
4575;SDS011;2300;51.874;8.430;2023-07-09T11:12:51;7.72;;;5.70;;
4575;SDS011;2300;51.874;8.430;2023-07-09T11:15:25;11.35;;;6.38;;
4575;SDS011;2300;51.874;8.430;2023-07-09T11:17:56;9.20;;;5.57;;
4575;SDS011;2300;51.874;8.430;2023-07-09T11:20:24;9.15;;;5.57;;
4575;SDS011;2300;51.874;8.430;2023-07-09T11:23:01;11.07;;;6.00;;
4575;SDS011;2300;51.874;8.430;2023-07-09T11:25:39;7.72;;;5.88;;
4575;SDS011;2300;51.874;8.430;2023-07-09T11:28:07;9.38;;;5.40;;
4575;SDS011;2300;51.874;8.430;2023-07-09T11:30:45;9.65;;;5.57;;
4575;SDS011;2300;51.874;8.430;2023-07-09T11:33:16;10.07;;;6.30;;
4575;SDS011;2300;51.874;8.430;2023-07-09T11:35:45;8.27;;;5.57;;
4575;SDS011;2300;51.874;8.430;2023-07-09T11:38:17;10.73;;;5.80;;
4575;SDS011;2300;51.874;8.430;2023-07-09T11:40:45;8.30;;;4.97;;
4575;SDS011;2300;51.874;8.430;2023-07-09T11:43:25;8.95;;;5.07;;
4575;SDS011;2300;51.874;8.430;2023-07-09T11:45:53;7.82;;;4.47;;
4575;SDS011;2300;51.874;8.430;2023-07-09T11:48:23;8.77;;;4.53;;
4575;SDS011;2300;51.874;8.430;2023-07-09T11:50:52;8.13;;;4.90;;
4575;SDS011;2300;51.874;8.430;2023-07-09T11:53:25;9.35;;;5.07;;
4575;SDS011;2300;51.874;8.430;2023-07-09T11:55:58;11.68;;;5.43;;
4575;SDS011;2300;51.874;8.430;2023-07-09T11:58:25;7.90;;;4.68;;
4575;SDS011;2300;51.874;8.430;2023-07-09T12:00:52;8.15;;;4.97;;
4575;SDS011;2300;51.874;8.430;2023-07-09T12:03:22;12.05;;;4.82;;
4575;SDS011;2300;51.874;8.430;2023-07-09T12:05:52;9.85;;;5.90;;
4575;SDS011;2300;51.874;8.430;2023-07-09T12:08:22;10.73;;;5.20;;
4575;SDS011;2300;51.874;8.430;2023-07-09T12:10:53;9.23;;;5.13;;
4575;SDS011;2300;51.874;8.430;2023-07-09T12:13:19;9.52;;;5.50;;
4575;SDS011;2300;51.874;8.430;2023-07-09T12:15:46;7.07;;;5.22;;
4575;SDS011;2300;51.874;8.430;2023-07-09T12:18:13;9.95;;;5.22;;
4575;SDS011;2300;51.874;8.430;2023-07-09T12:20:41;9.63;;;7.10;;
4575;SDS011;2300;51.874;8.430;2023-07-09T12:23:11;10.05;;;4.10;;
4575;SDS011;2300;51.874;8.430;2023-07-09T12:25:48;10.93;;;7.32;;
4575;SDS011;2300;51.874;8.430;2023-07-09T12:28:16;11.55;;;6.75;;
4575;SDS011;2300;51.874;8.430;2023-07-09T12:30:47;10.95;;;5.60;;
4575;SDS011;2300;51.874;8.430;2023-07-09T12:33:15;7.90;;;4.90;;
4575;SDS011;2300;51.874;8.430;2023-07-09T12:35:44;9.75;;;5.78;;
4575;SDS011;2300;51.874;8.430;2023-07-09T12:38:15;8.45;;;5.10;;
4575;SDS011;2300;51.874;8.430;2023-07-09T12:40:45;7.80;;;5.07;;
4575;SDS011;2300;51.874;8.430;2023-07-09T12:43:14;11.65;;;5.25;;
4575;SDS011;2300;51.874;8.430;2023-07-09T12:45:44;10.30;;;5.95;;
4575;SDS011;2300;51.874;8.430;2023-07-09T12:48:11;11.48;;;5.80;;
4575;SDS011;2300;51.874;8.430;2023-07-09T12:50:39;9.05;;;4.88;;
4575;SDS011;2300;51.874;8.430;2023-07-09T12:53:11;8.63;;;5.65;;
4575;SDS011;2300;51.874;8.430;2023-07-09T12:55:40;10.82;;;5.28;;
4575;SDS011;2300;51.874;8.430;2023-07-09T12:58:08;8.82;;;5.35;;
4575;SDS011;2300;51.874;8.430;2023-07-09T13:00:38;10.07;;;5.57;;
4575;SDS011;2300;51.874;8.430;2023-07-09T13:03:07;9.13;;;5.40;;
4575;SDS011;2300;51.874;8.430;2023-07-09T13:05:39;9.52;;;5.88;;
4575;SDS011;2300;51.874;8.430;2023-07-09T13:08:17;8.65;;;5.50;;
4575;SDS011;2300;51.874;8.430;2023-07-09T13:10:44;8.55;;;5.20;;
4575;SDS011;2300;51.874;8.430;2023-07-09T13:13:11;9.40;;;5.03;;
4575;SDS011;2300;51.874;8.430;2023-07-09T13:15:42;10.50;;;5.75;;
4575;SDS011;2300;51.874;8.430;2023-07-09T13:18:11;8.82;;;5.35;;
4575;SDS011;2300;51.874;8.430;2023-07-09T13:20:39;7.80;;;5.10;;
4575;SDS011;2300;51.874;8.430;2023-07-09T13:23:08;8.73;;;4.88;;
4575;SDS011;2300;51.874;8.430;2023-07-09T13:25:37;10.20;;;5.63;;
4575;SDS011;2300;51.874;8.430;2023-07-09T13:28:04;7.93;;;5.15;;
4575;SDS011;2300;51.874;8.430;2023-07-09T13:30:42;8.70;;;5.57;;
4575;SDS011;2300;51.874;8.430;2023-07-09T13:33:09;10.32;;;5.50;;
4575;SDS011;2300;51.874;8.430;2023-07-09T13:35:36;8.52;;;5.20;;
4575;SDS011;2300;51.874;8.430;2023-07-09T13:38:05;12.20;;;6.75;;
4575;SDS011;2300;51.874;8.430;2023-07-09T13:40:38;10.20;;;5.57;;
4575;SDS011;2300;51.874;8.430;2023-07-09T13:43:07;8.88;;;5.70;;
4575;SDS011;2300;51.874;8.430;2023-07-09T13:45:36;9.88;;;5.30;;
4575;SDS011;2300;51.874;8.430;2023-07-09T13:48:07;12.05;;;5.57;;
4575;SDS011;2300;51.874;8.430;2023-07-09T13:50:41;7.13;;;5.03;;
4575;SDS011;2300;51.874;8.430;2023-07-09T13:53:10;9.27;;;5.45;;
4575;SDS011;2300;51.874;8.430;2023-07-09T13:55:39;9.70;;;5.40;;
4575;SDS011;2300;51.874;8.430;2023-07-09T13:58:07;11.52;;;6.15;;
4575;SDS011;2300;51.874;8.430;2023-07-09T14:00:34;7.90;;;5.43;;
4575;SDS011;2300;51.874;8.430;2023-07-09T14:03:01;10.90;;;5.50;;
4575;SDS011;2300;51.874;8.430;2023-07-09T14:05:29;10.07;;;5.25;;
4575;SDS011;2300;51.874;8.430;2023-07-09T14:07:55;8.05;;;4.63;;
4575;SDS011;2300;51.874;8.430;2023-07-09T14:10:22;10.55;;;5.38;;
4575;SDS011;2300;51.874;8.430;2023-07-09T14:12:49;9.18;;;5.50;;
4575;SDS011;2300;51.874;8.430;2023-07-09T14:15:16;9.80;;;5.57;;
4575;SDS011;2300;51.874;8.430;2023-07-09T14:17:44;7.40;;;5.18;;
4575;SDS011;2300;51.874;8.430;2023-07-09T14:20:12;11.70;;;5.55;;
4575;SDS011;2300;51.874;8.430;2023-07-09T14:22:41;9.23;;;5.32;;
4575;SDS011;2300;51.874;8.430;2023-07-09T14:25:10;9.52;;;5.45;;
4575;SDS011;2300;51.874;8.430;2023-07-09T14:27:41;8.55;;;5.53;;
4575;SDS011;2300;51.874;8.430;2023-07-09T14:30:08;11.43;;;5.50;;
4575;SDS011;2300;51.874;8.430;2023-07-09T14:32:40;10.30;;;5.13;;
4575;SDS011;2300;51.874;8.430;2023-07-09T14:35:10;9.07;;;5.32;;
4575;SDS011;2300;51.874;8.430;2023-07-09T14:37:38;12.40;;;5.32;;
4575;SDS011;2300;51.874;8.430;2023-07-09T14:40:07;8.60;;;4.88;;
4575;SDS011;2300;51.874;8.430;2023-07-09T14:42:34;9.23;;;5.63;;
4575;SDS011;2300;51.874;8.430;2023-07-09T14:45:02;8.65;;;5.68;;
4575;SDS011;2300;51.874;8.430;2023-07-09T14:47:29;11.73;;;5.57;;
4575;SDS011;2300;51.874;8.430;2023-07-09T14:49:55;8.55;;;4.80;;
4575;SDS011;2300;51.874;8.430;2023-07-09T14:52:22;9.43;;;5.57;;
4575;SDS011;2300;51.874;8.430;2023-07-09T14:54:48;8.27;;;5.50;;
4575;SDS011;2300;51.874;8.430;2023-07-09T14:57:19;11.63;;;5.45;;
4575;SDS011;2300;51.874;8.430;2023-07-09T14:59:47;8.20;;;5.47;;
4575;SDS011;2300;51.874;8.430;2023-07-09T15:02:19;9.32;;;4.97;;
4575;SDS011;2300;51.874;8.430;2023-07-09T15:04:49;10.48;;;5.50;;
4575;SDS011;2300;51.874;8.430;2023-07-09T15:07:16;9.77;;;5.53;;
4575;SDS011;2300;51.874;8.430;2023-07-09T15:09:42;8.80;;;5.35;;
4575;SDS011;2300;51.874;8.430;2023-07-09T15:12:12;9.38;;;5.22;;
4575;SDS011;2300;51.874;8.430;2023-07-09T15:14:46;11.52;;;5.10;;
4575;SDS011;2300;51.874;8.430;2023-07-09T15:17:12;10.15;;;5.45;;